Saloa, Brazil
Current Conditions -  °F | °C
As of 3:00 PM on Thursday 27 Nov 2014 (Local Time) from SBMO Reporting Station
Scattered Clouds Scattered Clouds  
Wind Chill: 86°   Ceiling: Unl
Heat Index: 93°   Visibility: 6mi
Dew Point: 73°   Wind: 15mph
Humidity: 66%   Direction: 100°E
Pressure: 29.91"   Gusts: NA
Location:  8.97°S, 36.69°W
Report Text: SBMO 271800Z 10013KT 9999 SCT020 30/23 Q1013
Loading
Personal Weather Stations






























Interactive Weather Map New forecast layout! Learn more

10-Day Weather Forecast

Advertisements
Track Severe Weather on mobile